createdAt,value
2023-04-09T00:00:52.489Z,65.13
2023-04-09T00:01:52.527Z,65.13
2023-04-09T00:02:52.515Z,65.13
2023-04-09T00:03:52.514Z,65.13
2023-04-09T00:04:52.504Z,65.13
2023-04-09T00:05:52.470Z,65.13
2023-04-09T00:06:52.434Z,65.13
2023-04-09T00:07:52.421Z,65.03
2023-04-09T00:08:52.656Z,65.13
2023-04-09T00:09:52.383Z,65.13
2023-04-09T00:10:52.372Z,65.03
2023-04-09T00:11:52.362Z,65.03
2023-04-09T00:12:52.385Z,65.03
2023-04-09T00:13:52.336Z,65.13
2023-04-09T00:14:52.334Z,65.03
2023-04-09T00:15:52.338Z,65.03
2023-04-09T00:16:52.314Z,65.03
2023-04-09T00:17:52.330Z,65.03
2023-04-09T00:18:52.607Z,65.03
2023-04-09T00:19:52.280Z,65.03
2023-04-09T00:20:52.276Z,65.13
2023-04-09T00:21:52.301Z,65.13
2023-04-09T00:22:52.244Z,65.03
2023-04-09T00:23:52.230Z,65.03
2023-04-09T00:24:52.220Z,65.03
2023-04-09T00:25:52.250Z,65.03
2023-04-09T00:26:52.202Z,65.13
2023-04-09T00:27:52.193Z,65.03
2023-04-09T00:28:52.496Z,65.03
2023-04-09T00:29:52.167Z,65.03
2023-04-09T00:30:52.197Z,65.03
2023-04-09T00:31:52.235Z,65.03
2023-04-09T00:32:52.224Z,65.03
2023-04-09T00:33:52.128Z,65.13
2023-04-09T00:34:52.144Z,65.03
2023-04-09T00:35:52.133Z,65.03
2023-04-09T00:36:52.110Z,65.03
2023-04-09T00:37:52.144Z,65.03
2023-04-09T00:38:52.386Z,65.03
2023-04-09T00:39:52.065Z,65.03
2023-04-09T00:40:52.072Z,65.03
2023-04-09T00:41:52.040Z,65.03
2023-04-09T00:42:52.026Z,65.03
2023-04-09T00:43:52.018Z,65.03
2023-04-09T00:44:52.007Z,65.03
2023-04-09T00:45:52.048Z,65.03
2023-04-09T00:46:52.023Z,65.03
2023-04-09T00:47:52.039Z,65.03
2023-04-09T00:48:52.259Z,65.03
2023-04-09T00:49:51.957Z,65.03
2023-04-09T00:50:51.948Z,65.03
2023-04-09T00:51:51.944Z,65.03
2023-04-09T00:52:51.939Z,65.03
2023-04-09T00:53:51.940Z,65.03
2023-04-09T00:54:51.898Z,65.03
2023-04-09T00:55:51.887Z,65.03
2023-04-09T00:56:51.899Z,65.03
2023-04-09T00:57:51.869Z,65.03
2023-04-09T00:58:52.172Z,65.03
2023-04-09T00:59:51.846Z,65.03
2023-04-09T01:00:51.841Z,65.03
2023-04-09T01:01:51.848Z,65.03
2023-04-09T01:02:51.925Z,65.03
2023-04-09T01:03:51.832Z,65.03
2023-04-09T01:04:51.797Z,65.03
2023-04-09T01:05:51.810Z,65.03
2023-04-09T01:06:51.784Z,65.03
2023-04-09T01:07:51.760Z,65.03
2023-04-09T01:08:52.252Z,65.03
2023-04-09T01:09:51.777Z,65.03
2023-04-09T01:10:51.726Z,65.03
2023-04-09T01:11:51.738Z,65.03
2023-04-09T01:12:51.710Z,65.03
2023-04-09T01:13:51.691Z,65.03
2023-04-09T01:14:51.739Z,65.03
2023-04-09T01:15:51.667Z,65.03
2023-04-09T01:16:51.886Z,65.03
2023-04-09T01:17:51.679Z,65.03
2023-04-09T01:18:51.833Z,64.93
2023-04-09T01:19:51.625Z,65.03
2023-04-09T01:20:51.625Z,64.93
2023-04-09T01:21:51.615Z,64.93
2023-04-09T01:22:51.597Z,65.03
2023-04-09T01:23:51.604Z,64.93
2023-04-09T01:24:51.574Z,64.93
2023-04-09T01:25:51.586Z,65.03
2023-04-09T01:26:51.555Z,64.93
2023-04-09T01:27:51.539Z,65.03
2023-04-09T01:28:51.836Z,65.03
2023-04-09T01:29:51.517Z,65.03
2023-04-09T01:30:51.523Z,64.93
2023-04-09T01:31:51.511Z,64.93
2023-04-09T01:32:51.499Z,64.93
2023-04-09T01:33:51.500Z,64.93
2023-04-09T01:34:51.490Z,64.93
2023-04-09T01:35:51.503Z,64.93
2023-04-09T01:36:51.447Z,64.93
2023-04-09T01:37:51.434Z,64.93
2023-04-09T01:38:51.661Z,64.93
2023-04-09T01:39:51.436Z,64.93
2023-04-09T01:40:51.403Z,64.93
2023-04-09T01:41:51.417Z,64.93
2023-04-09T01:42:51.393Z,64.93
2023-04-09T01:43:51.392Z,64.93
2023-04-09T01:44:51.371Z,64.93
2023-04-09T01:45:51.382Z,64.93
2023-04-09T01:46:51.338Z,65.03
2023-04-09T01:47:51.368Z,64.93
2023-04-09T01:48:51.617Z,64.93
2023-04-09T01:49:51.303Z,64.93
2023-04-09T01:50:51.313Z,64.93
2023-04-09T01:51:51.281Z,64.93
2023-04-09T01:52:51.277Z,64.93
2023-04-09T01:53:51.269Z,64.93
2023-04-09T01:54:51.251Z,64.93
2023-04-09T01:55:51.268Z,64.93
2023-04-09T01:56:51.230Z,64.93
2023-04-09T01:57:51.249Z,64.93
2023-04-09T01:58:51.531Z,64.93
2023-04-09T01:59:51.201Z,64.93
2023-04-09T02:00:51.185Z,64.93
2023-04-09T02:01:51.284Z,64.93
2023-04-09T02:02:51.245Z,64.93
2023-04-09T02:03:51.324Z,64.93
2023-04-09T02:04:51.143Z,64.93
2023-04-09T02:05:51.133Z,64.93
2023-04-09T02:06:51.155Z,64.93
2023-04-09T02:07:51.136Z,64.93
2023-04-09T02:08:51.366Z,64.93
2023-04-09T02:09:51.090Z,64.93
2023-04-09T02:10:51.093Z,64.93
2023-04-09T02:11:51.070Z,64.93
2023-04-09T02:12:51.080Z,64.93
2023-04-09T02:13:51.072Z,64.93
2023-04-09T02:14:51.036Z,64.93
2023-04-09T02:15:51.092Z,64.93
2023-04-09T02:16:51.016Z,64.93
2023-04-09T02:17:51.051Z,64.93
2023-04-09T02:18:51.174Z,64.93
2023-04-09T02:19:50.984Z,64.93
2023-04-09T02:20:50.991Z,64.93
2023-04-09T02:21:50.960Z,64.83
2023-04-09T02:22:50.962Z,64.93
2023-04-09T02:23:50.976Z,64.93
2023-04-09T02:24:50.958Z,64.93
2023-04-09T02:25:50.924Z,64.93
2023-04-09T02:26:50.906Z,64.93
2023-04-09T02:27:50.899Z,64.93
2023-04-09T02:28:51.206Z,64.93
2023-04-09T02:29:50.904Z,64.93
2023-04-09T02:30:50.988Z,64.93
2023-04-09T02:31:50.854Z,64.93
2023-04-09T02:32:50.903Z,64.93
2023-04-09T02:33:50.835Z,64.93
2023-04-09T02:34:50.822Z,64.93
2023-04-09T02:35:50.884Z,64.93
2023-04-09T02:36:50.800Z,64.93
2023-04-09T02:37:50.797Z,64.93
2023-04-09T02:38:50.937Z,64.83
2023-04-09T02:39:50.769Z,64.93
2023-04-09T02:40:50.779Z,64.83
2023-04-09T02:41:50.756Z,64.83
2023-04-09T02:42:50.737Z,64.83
2023-04-09T02:43:50.726Z,64.83
2023-04-09T02:44:50.716Z,64.83
2023-04-09T02:45:50.756Z,64.83
2023-04-09T02:46:50.697Z,64.83
2023-04-09T02:47:50.744Z,64.83
2023-04-09T02:48:50.874Z,64.83
2023-04-09T02:49:50.661Z,64.83
2023-04-09T02:50:50.677Z,64.83
2023-04-09T02:51:50.638Z,64.83
2023-04-09T02:52:50.631Z,64.83
2023-04-09T02:53:50.621Z,64.83
2023-04-09T02:54:50.608Z,64.83
2023-04-09T02:55:50.620Z,64.83
2023-04-09T02:56:50.601Z,64.83
2023-04-09T02:57:50.574Z,64.83
2023-04-09T02:58:50.710Z,64.83
2023-04-09T02:59:50.556Z,64.83
2023-04-09T03:00:50.571Z,64.83
2023-04-09T03:01:50.654Z,64.83
2023-04-09T03:02:50.643Z,64.83
2023-04-09T03:03:50.683Z,64.83
2023-04-09T03:04:50.504Z,64.83
2023-04-09T03:05:50.494Z,64.83
2023-04-09T03:06:50.512Z,64.83
2023-04-09T03:07:50.477Z,64.83
2023-04-09T03:08:50.733Z,64.83
2023-04-09T03:09:50.452Z,64.83
2023-04-09T03:10:50.435Z,64.83
2023-04-09T03:11:50.460Z,64.83
2023-04-09T03:12:50.445Z,64.83
2023-04-09T03:13:50.417Z,64.83
2023-04-09T03:14:50.418Z,64.83
2023-04-09T03:15:50.415Z,64.83
2023-04-09T03:16:50.373Z,64.83
2023-04-09T03:17:50.432Z,64.83
2023-04-09T03:18:50.538Z,64.83
2023-04-09T03:19:50.367Z,64.83
2023-04-09T03:20:50.344Z,64.83
2023-04-09T03:21:50.332Z,64.83
2023-04-09T03:22:50.316Z,64.83
2023-04-09T03:23:50.305Z,64.83
2023-04-09T03:24:50.310Z,64.83
2023-04-09T03:25:50.280Z,64.83
2023-04-09T03:26:50.266Z,64.83
2023-04-09T03:27:50.262Z,64.83
2023-04-09T03:28:50.595Z,64.83
2023-04-09T03:29:50.256Z,64.83
2023-04-09T03:30:50.228Z,64.83
2023-04-09T03:31:50.215Z,64.83
2023-04-09T03:32:50.242Z,64.83
2023-04-09T03:33:50.240Z,64.83
2023-04-09T03:34:50.182Z,64.83
2023-04-09T03:35:50.219Z,64.83
2023-04-09T03:36:50.164Z,64.73
2023-04-09T03:37:50.149Z,64.83
2023-04-09T03:38:50.459Z,64.73
2023-04-09T03:39:50.155Z,64.73
2023-04-09T03:40:50.131Z,64.73
2023-04-09T03:41:50.128Z,64.73
2023-04-09T03:42:50.109Z,64.83
2023-04-09T03:43:50.094Z,64.73
2023-04-09T03:44:50.074Z,64.73
2023-04-09T03:45:50.075Z,64.73
2023-04-09T03:46:50.119Z,64.73
2023-04-09T03:47:50.078Z,64.73
2023-04-09T03:48:50.212Z,64.73
2023-04-09T03:49:50.069Z,64.73
2023-04-09T03:50:50.032Z,64.73
2023-04-09T03:51:50.000Z,64.73
2023-04-09T03:52:50.011Z,64.73
2023-04-09T03:53:49.983Z,64.73
2023-04-09T03:54:49.987Z,64.73
2023-04-09T03:55:49.954Z,64.73
2023-04-09T03:56:49.973Z,64.73
2023-04-09T03:57:49.931Z,64.73
2023-04-09T03:58:50.081Z,64.73
2023-04-09T03:59:49.919Z,64.73
2023-04-09T04:00:49.926Z,64.73
2023-04-09T04:01:49.924Z,64.73
2023-04-09T04:02:50.238Z,64.73
2023-04-09T04:03:49.967Z,64.73
2023-04-09T04:04:49.982Z,64.73
2023-04-09T04:05:49.875Z,64.73
2023-04-09T04:06:49.833Z,64.62
2023-04-09T04:07:49.844Z,64.62
2023-04-09T04:08:49.956Z,64.62
2023-04-09T04:09:49.830Z,64.62
2023-04-09T04:10:49.794Z,64.62
2023-04-09T04:11:49.793Z,64.62
2023-04-09T04:12:49.822Z,64.62
2023-04-09T04:13:49.760Z,64.62
2023-04-09T04:14:49.757Z,64.62
2023-04-09T04:15:49.735Z,64.62
2023-04-09T04:16:49.729Z,64.62
2023-04-09T04:17:49.827Z,64.62
2023-04-09T04:18:49.836Z,64.62
2023-04-09T04:19:49.697Z,64.62
2023-04-09T04:20:49.688Z,64.62
2023-04-09T04:21:49.722Z,64.62
2023-04-09T04:22:49.689Z,64.62
2023-04-09T04:23:49.684Z,64.62
2023-04-09T04:24:49.640Z,64.62
2023-04-09T04:25:49.628Z,64.62
2023-04-09T04:26:49.626Z,64.62
2023-04-09T04:27:49.608Z,64.52
2023-04-09T04:28:49.871Z,64.52
2023-04-09T04:29:49.633Z,64.52
2023-04-09T04:30:49.577Z,64.62
2023-04-09T04:31:49.597Z,64.62
2023-04-09T04:32:49.595Z,64.62
2023-04-09T04:33:49.551Z,64.62
2023-04-09T04:34:49.559Z,64.62
2023-04-09T04:35:49.560Z,64.62
2023-04-09T04:36:49.510Z,64.52
2023-04-09T04:37:49.625Z,64.62
2023-04-09T04:38:49.507Z,64.52
2023-04-09T04:39:49.511Z,64.52
2023-04-09T04:40:49.502Z,64.52
2023-04-09T04:41:49.478Z,64.52
2023-04-09T04:42:49.451Z,64.52
2023-04-09T04:43:49.435Z,64.52
2023-04-09T04:44:49.428Z,64.52
2023-04-09T04:45:49.466Z,64.52
2023-04-09T04:46:49.405Z,64.52
2023-04-09T04:47:49.451Z,64.52
2023-04-09T04:48:49.514Z,64.52
2023-04-09T04:49:49.372Z,64.52
2023-04-09T04:50:49.391Z,64.52
2023-04-09T04:51:49.360Z,64.52
2023-04-09T04:52:49.347Z,64.52
2023-04-09T04:53:49.360Z,64.52
2023-04-09T04:54:49.342Z,64.52
2023-04-09T04:55:49.311Z,64.52
2023-04-09T04:56:49.302Z,64.52
2023-04-09T04:57:49.288Z,64.52
2023-04-09T04:58:49.344Z,64.52
2023-04-09T04:59:49.265Z,64.52
2023-04-09T05:00:49.285Z,64.52
2023-04-09T05:01:49.271Z,64.52
2023-04-09T05:02:49.334Z,64.52
2023-04-09T05:03:49.512Z,64.52
2023-04-09T05:04:49.232Z,64.52
2023-04-09T05:05:49.223Z,64.52
2023-04-09T05:06:49.191Z,64.52
2023-04-09T05:07:49.180Z,64.52
2023-04-09T05:08:49.171Z,64.42
2023-04-09T05:09:49.204Z,64.52
2023-04-09T05:10:49.149Z,64.52
2023-04-09T05:11:49.137Z,64.52
2023-04-09T05:12:49.125Z,64.52
2023-04-09T05:13:49.117Z,64.52
2023-04-09T05:14:49.131Z,64.52
2023-04-09T05:15:49.092Z,64.42
2023-04-09T05:16:49.158Z,64.52
2023-04-09T05:17:49.146Z,64.42
2023-04-09T05:18:49.059Z,64.42
2023-04-09T05:19:49.071Z,64.42
2023-04-09T05:20:49.036Z,64.52
2023-04-09T05:21:49.068Z,64.52
2023-04-09T05:22:49.037Z,64.42
2023-04-09T05:23:49.007Z,64.42
2023-04-09T05:24:49.004Z,64.42
2023-04-09T05:25:49.022Z,64.42
2023-04-09T05:26:48.974Z,64.42
2023-04-09T05:27:48.986Z,64.42
2023-04-09T05:28:48.957Z,64.42
2023-04-09T05:29:48.943Z,64.42
2023-04-09T05:30:49.018Z,64.42
2023-04-09T05:31:48.921Z,64.42
2023-04-09T05:32:48.947Z,64.42
2023-04-09T05:33:48.901Z,64.42
2023-04-09T05:34:48.889Z,64.42
2023-04-09T05:35:48.919Z,64.42
2023-04-09T05:36:48.896Z,64.42
2023-04-09T05:37:48.856Z,64.42
2023-04-09T05:38:48.846Z,64.42
2023-04-09T05:39:48.841Z,64.42
2023-04-09T05:40:48.855Z,64.42
2023-04-09T05:41:48.859Z,64.42
2023-04-09T05:42:48.810Z,64.42
2023-04-09T05:43:48.793Z,64.42
2023-04-09T05:44:48.784Z,64.42
2023-04-09T05:45:48.824Z,64.42
2023-04-09T05:46:48.783Z,64.42
2023-04-09T05:47:48.779Z,64.42
2023-04-09T05:48:48.742Z,64.42
2023-04-09T05:49:48.741Z,64.42
2023-04-09T05:50:55.056Z,64.42
2023-04-09T05:51:49.745Z,64.42
2023-04-09T05:52:48.696Z,64.42
2023-04-09T05:53:48.688Z,64.42
2023-04-09T05:54:48.691Z,64.42
2023-04-09T05:55:48.666Z,64.42
2023-04-09T05:56:48.656Z,64.42
2023-04-09T05:57:48.692Z,64.42
2023-04-09T05:58:48.639Z,64.42
2023-04-09T05:59:48.625Z,64.42
2023-04-09T06:00:48.621Z,64.42
2023-04-09T06:01:48.632Z,64.32
2023-04-09T06:02:48.676Z,64.42
2023-04-09T06:03:48.746Z,64.42
2023-04-09T06:04:48.610Z,64.42
2023-04-09T06:05:48.575Z,64.32
2023-04-09T06:06:48.548Z,64.32
2023-04-09T06:07:48.538Z,64.42
2023-04-09T06:08:48.526Z,64.32
2023-04-09T06:09:48.511Z,64.32
2023-04-09T06:10:48.530Z,64.32
2023-04-09T06:11:48.490Z,64.42
2023-04-09T06:12:48.481Z,64.42
2023-04-09T06:13:48.494Z,64.32
2023-04-09T06:14:48.464Z,64.42
2023-04-09T06:15:48.545Z,64.32
2023-04-09T06:16:48.441Z,64.32
2023-04-09T06:17:48.453Z,64.32
2023-04-09T06:18:48.420Z,64.32
2023-04-09T06:19:48.409Z,64.32
2023-04-09T06:20:48.416Z,64.42
2023-04-09T06:21:48.386Z,64.32
2023-04-09T06:22:48.375Z,64.32
2023-04-09T06:23:48.708Z,64.32
2023-04-09T06:24:48.352Z,64.32
2023-04-09T06:25:48.365Z,64.32
2023-04-09T06:26:48.340Z,64.32
2023-04-09T06:27:48.321Z,64.32
2023-04-09T06:28:48.312Z,64.32
2023-04-09T06:29:48.352Z,64.32
2023-04-09T06:30:48.311Z,64.32
2023-04-09T06:31:48.274Z,64.32
2023-04-09T06:32:54.622Z,64.32
2023-04-09T06:33:49.251Z,64.32
2023-04-09T06:34:48.273Z,64.32
2023-04-09T06:35:48.302Z,64.42
2023-04-09T06:36:48.217Z,64.32
2023-04-09T06:37:48.213Z,64.32
2023-04-09T06:38:48.198Z,64.32
2023-04-09T06:40:00.585Z,64.32
2023-04-09T06:40:49.198Z,64.42
2023-04-09T06:41:48.167Z,64.42
2023-04-09T06:42:48.152Z,64.42
2023-04-09T06:43:48.142Z,64.42
2023-04-09T06:44:48.131Z,64.42
2023-04-09T06:45:48.375Z,64.32
2023-04-09T06:46:48.176Z,64.32
2023-04-09T06:47:48.120Z,64.32
2023-04-09T06:48:48.109Z,64.42
2023-04-09T06:49:48.085Z,64.42
2023-04-09T06:50:48.068Z,64.32
2023-04-09T06:51:48.068Z,64.42
2023-04-09T06:52:48.050Z,64.32
2023-04-09T06:53:48.208Z,64.32
2023-04-09T06:54:48.032Z,64.32
2023-04-09T06:55:48.016Z,64.42
2023-04-09T06:56:48.007Z,64.32
2023-04-09T06:57:47.995Z,64.42
2023-04-09T06:58:48.009Z,64.32
2023-04-09T06:59:47.971Z,64.42
2023-04-09T07:00:47.963Z,64.42
2023-04-09T07:01:48.047Z,64.42
2023-04-09T07:02:48.134Z,64.42
2023-04-09T07:03:47.978Z,64.32
2023-04-09T07:04:48.126Z,64.32
2023-04-09T07:05:47.911Z,64.32
2023-04-09T07:06:47.903Z,64.32
2023-04-09T07:07:47.885Z,64.32
2023-04-09T07:08:47.898Z,64.32
2023-04-09T07:09:47.865Z,64.42
2023-04-09T07:10:47.853Z,64.32
2023-04-09T07:11:47.868Z,64.32
2023-04-09T07:12:47.833Z,64.32
2023-04-09T07:13:47.820Z,64.42
2023-04-09T07:14:47.812Z,64.42
2023-04-09T07:15:47.827Z,64.32
2023-04-09T07:16:47.810Z,64.32
2023-04-09T07:17:47.878Z,64.32
2023-04-09T07:18:47.768Z,64.32
2023-04-09T07:19:47.779Z,64.42
2023-04-09T07:20:47.748Z,64.32
2023-04-09T07:21:47.743Z,64.32
2023-04-09T07:22:47.732Z,64.42
2023-04-09T07:23:47.720Z,64.42
2023-04-09T07:24:47.730Z,64.42
2023-04-09T07:25:47.698Z,64.42
2023-04-09T07:26:47.939Z,64.42
2023-04-09T07:27:47.690Z,64.42
2023-04-09T07:28:47.674Z,64.42
2023-04-09T07:29:47.667Z,64.42
2023-04-09T07:30:47.657Z,64.42
2023-04-09T07:31:47.734Z,64.42
2023-04-09T07:32:47.700Z,64.42
2023-04-09T07:33:47.633Z,64.42
2023-04-09T07:34:47.597Z,64.42
2023-04-09T07:35:47.605Z,64.42
2023-04-09T07:36:47.593Z,64.42
2023-04-09T07:37:47.565Z,64.42
2023-04-09T07:38:47.551Z,64.42
2023-04-09T07:39:47.555Z,64.42
2023-04-09T07:40:47.539Z,64.42
2023-04-09T07:41:47.545Z,64.42
2023-04-09T07:42:47.513Z,64.42
2023-04-09T07:43:47.498Z,64.42
2023-04-09T07:44:47.552Z,64.42
2023-04-09T07:45:47.476Z,64.42
2023-04-09T07:46:47.524Z,64.52
2023-04-09T07:47:47.527Z,64.52
2023-04-09T07:48:48.471Z,64.52
2023-04-09T07:49:47.458Z,64.52
2023-04-09T07:50:47.422Z,64.42
2023-04-09T07:51:47.432Z,64.52
2023-04-09T07:52:47.407Z,64.52
2023-04-09T07:53:47.392Z,64.52
2023-04-09T07:54:47.381Z,64.52
2023-04-09T07:55:47.407Z,64.52
2023-04-09T07:56:47.378Z,64.52
2023-04-09T07:57:47.349Z,64.52
2023-04-09T07:58:47.361Z,64.52
2023-04-09T07:59:47.353Z,64.52
2023-04-09T08:00:47.318Z,64.52
2023-04-09T08:01:47.380Z,64.52
2023-04-09T08:02:47.553Z,64.52
2023-04-09T08:03:47.407Z,64.52
2023-04-09T08:04:47.370Z,64.52
2023-04-09T08:05:47.309Z,64.62
2023-04-09T08:06:47.279Z,64.52
2023-04-09T08:07:47.240Z,64.62
2023-04-09T08:08:47.239Z,64.62
2023-04-09T08:09:47.243Z,64.62
2023-04-09T08:10:47.217Z,64.62
2023-04-09T08:11:47.203Z,64.52
2023-04-09T08:12:47.192Z,64.52
2023-04-09T08:13:47.206Z,64.52
2023-04-09T08:14:47.166Z,64.52
2023-04-09T08:15:47.168Z,64.52
2023-04-09T08:16:47.394Z,64.62
2023-04-09T08:17:47.174Z,64.52
2023-04-09T08:18:47.127Z,64.52
2023-04-09T08:19:47.139Z,64.52
2023-04-09T08:20:47.105Z,64.52
2023-04-09T08:21:47.127Z,64.52
2023-04-09T08:22:47.085Z,64.52
2023-04-09T08:23:47.070Z,64.62
2023-04-09T08:24:47.091Z,64.62
2023-04-09T08:25:47.049Z,64.52
2023-04-09T08:26:47.064Z,64.62
2023-04-09T08:27:47.028Z,64.62
2023-04-09T08:28:47.023Z,64.62
2023-04-09T08:29:47.031Z,64.62
2023-04-09T08:30:46.998Z,64.62
2023-04-09T08:31:47.062Z,64.62
2023-04-09T08:32:47.064Z,64.62
2023-04-09T08:33:46.985Z,64.62
2023-04-09T08:34:46.961Z,64.62
2023-04-09T08:35:46.952Z,64.62
2023-04-09T08:36:46.963Z,64.62
2023-04-09T08:37:46.947Z,64.62
2023-04-09T08:38:46.908Z,64.62
2023-04-09T08:39:46.899Z,64.62
2023-04-09T08:40:46.889Z,64.62
2023-04-09T08:41:46.903Z,64.62
2023-04-09T08:42:46.868Z,64.62
2023-04-09T08:43:56.853Z,64.62
2023-04-09T08:44:47.845Z,64.62
2023-04-09T08:45:46.895Z,64.62
2023-04-09T08:46:46.823Z,64.62
2023-04-09T08:47:46.948Z,64.62
2023-04-09T08:48:46.802Z,64.62
2023-04-09T08:49:46.792Z,64.62
2023-04-09T08:50:46.803Z,64.62
2023-04-09T08:51:46.773Z,64.62
2023-04-09T08:52:46.789Z,64.62
2023-04-09T08:53:46.777Z,64.62
2023-04-09T08:54:46.754Z,64.62
2023-04-09T08:55:46.726Z,64.62
2023-04-09T08:56:46.714Z,64.62
2023-04-09T08:57:46.733Z,64.62
2023-04-09T08:58:46.694Z,64.62
2023-04-09T08:59:46.708Z,64.62
2023-04-09T09:00:46.675Z,64.62
2023-04-09T09:01:46.793Z,64.62
2023-04-09T09:02:46.754Z,64.62
2023-04-09T09:03:46.744Z,64.62
2023-04-09T09:04:46.629Z,64.62
2023-04-09T09:05:46.624Z,64.62
2023-04-09T09:06:46.612Z,64.62
2023-04-09T09:07:46.618Z,64.62
2023-04-09T09:08:46.586Z,64.62
2023-04-09T09:09:46.597Z,64.62
2023-04-09T09:10:46.573Z,64.62
2023-04-09T09:11:46.554Z,64.62
2023-04-09T09:12:46.563Z,64.62
2023-04-09T09:13:46.550Z,64.62
2023-04-09T09:14:46.526Z,64.62
2023-04-09T09:15:46.537Z,64.62
2023-04-09T09:16:46.565Z,64.62
2023-04-09T09:17:46.592Z,64.62
2023-04-09T09:18:46.503Z,64.62
2023-04-09T09:19:46.468Z,64.62
2023-04-09T09:20:46.465Z,64.62
2023-04-09T09:21:46.446Z,64.62
2023-04-09T09:22:46.434Z,64.62
2023-04-09T09:23:46.426Z,64.62
2023-04-09T09:24:48.352Z,64.62
2023-04-09T09:25:46.427Z,64.62
2023-04-09T09:26:46.391Z,64.62
2023-04-09T09:27:46.379Z,64.62
2023-04-09T09:28:46.368Z,64.62
2023-04-09T09:29:46.378Z,64.62
2023-04-09T09:30:48.623Z,64.62
2023-04-09T09:31:46.355Z,64.62
2023-04-09T09:32:46.371Z,64.62
2023-04-09T09:33:46.315Z,64.62
2023-04-09T09:34:46.326Z,64.62
2023-04-09T09:35:46.347Z,64.62
2023-04-09T09:36:46.291Z,64.62
2023-04-09T09:37:46.289Z,64.62
2023-04-09T09:38:46.265Z,64.62
2023-04-09T09:39:46.274Z,64.62
2023-04-09T09:40:46.253Z,64.62
2023-04-09T09:41:46.263Z,64.62
2023-04-09T09:42:46.244Z,64.62
2023-04-09T09:43:46.216Z,64.62
2023-04-09T09:44:46.212Z,64.62
2023-04-09T09:45:46.239Z,64.62
2023-04-09T09:46:46.204Z,64.62
2023-04-09T09:47:46.174Z,64.62
2023-04-09T09:48:46.163Z,64.62
2023-04-09T09:49:46.152Z,64.62
2023-04-09T09:50:46.136Z,64.62
2023-04-09T09:51:46.154Z,64.62
2023-04-09T09:52:46.138Z,64.62
2023-04-09T09:53:48.329Z,64.62
2023-04-09T09:54:46.102Z,64.62
2023-04-09T09:55:46.083Z,64.62
2023-04-09T09:56:46.096Z,64.62
2023-04-09T09:57:46.087Z,64.62
2023-04-09T09:58:46.056Z,64.62
2023-04-09T09:59:46.066Z,64.62
2023-04-09T10:00:46.033Z,64.62
2023-04-09T10:01:46.171Z,64.62
2023-04-09T10:02:46.158Z,64.62
2023-04-09T10:03:46.020Z,64.62
2023-04-09T10:04:46.127Z,64.62
2023-04-09T10:05:45.996Z,64.62
2023-04-09T10:06:45.982Z,64.62
2023-04-09T10:07:45.961Z,64.62
2023-04-09T10:08:45.942Z,64.62
2023-04-09T10:09:45.936Z,64.62
2023-04-09T10:10:45.953Z,64.62
2023-04-09T10:11:45.913Z,64.62
2023-04-09T10:12:45.903Z,64.62
2023-04-09T10:13:45.936Z,64.62
2023-04-09T10:14:45.901Z,64.62
2023-04-09T10:15:45.893Z,64.62
2023-04-09T10:16:45.856Z,64.62
2023-04-09T10:17:45.947Z,64.62
2023-04-09T10:18:45.896Z,64.62
2023-04-09T10:19:45.824Z,64.62
2023-04-09T10:20:45.818Z,64.62
2023-04-09T10:21:45.804Z,64.62
2023-04-09T10:22:45.791Z,64.62
2023-04-09T10:23:45.791Z,64.62
2023-04-09T10:24:45.795Z,64.62
2023-04-09T10:25:45.761Z,64.62
2023-04-09T10:26:45.774Z,64.62
2023-04-09T10:27:45.739Z,64.62
2023-04-09T10:28:45.730Z,64.62
2023-04-09T10:29:45.755Z,64.62
2023-04-09T10:30:45.802Z,64.73
2023-04-09T10:31:45.701Z,64.62
2023-04-09T10:32:45.752Z,64.73
2023-04-09T10:33:45.688Z,64.73
2023-04-09T10:34:45.667Z,64.62
2023-04-09T10:35:45.676Z,64.62
2023-04-09T10:36:45.644Z,64.62
2023-04-09T10:37:45.652Z,64.62
2023-04-09T10:38:45.620Z,64.62
2023-04-09T10:39:45.618Z,64.62
2023-04-09T10:40:45.602Z,64.62
2023-04-09T10:41:45.588Z,64.62
2023-04-09T10:42:45.603Z,64.62
2023-04-09T10:43:45.572Z,64.62
2023-04-09T10:44:45.566Z,64.62
2023-04-09T10:45:45.571Z,64.62
2023-04-09T10:46:45.560Z,64.62
2023-04-09T10:47:45.602Z,64.62
2023-04-09T10:48:45.539Z,64.62
2023-04-09T10:49:45.508Z,64.62
2023-04-09T10:50:45.505Z,64.62
2023-04-09T10:51:45.484Z,64.62
2023-04-09T10:52:45.488Z,64.62
2023-04-09T10:53:45.495Z,64.62
2023-04-09T10:54:45.450Z,64.62
2023-04-09T10:55:45.469Z,64.62
2023-04-09T10:56:45.431Z,64.62
2023-04-09T10:57:45.429Z,64.62
2023-04-09T10:58:45.408Z,64.62
2023-04-09T10:59:45.423Z,64.62
2023-04-09T11:00:45.401Z,64.62
2023-04-09T11:01:45.478Z,64.62
2023-04-09T11:02:45.580Z,64.62
2023-04-09T11:03:45.398Z,64.62
2023-04-09T11:04:45.426Z,64.62
2023-04-09T11:05:45.334Z,64.62
2023-04-09T11:06:45.322Z,64.62
2023-04-09T11:07:45.325Z,64.62
2023-04-09T11:08:45.313Z,64.62
2023-04-09T11:09:45.327Z,64.62
2023-04-09T11:10:45.356Z,64.62
2023-04-09T11:11:45.269Z,64.62
2023-04-09T11:12:45.256Z,64.62
2023-04-09T11:13:45.252Z,64.62
2023-04-09T11:14:45.258Z,64.62
2023-04-09T11:15:45.297Z,64.62
2023-04-09T11:16:45.360Z,64.62
2023-04-09T11:17:45.289Z,64.62
2023-04-09T11:18:45.238Z,64.62
2023-04-09T11:19:45.249Z,64.62
2023-04-09T11:20:45.244Z,64.62
2023-04-09T11:21:45.200Z,64.62
2023-04-09T11:22:45.197Z,64.62
2023-04-09T11:23:45.157Z,64.62
2023-04-09T11:24:45.132Z,64.62
2023-04-09T11:25:45.137Z,64.62
2023-04-09T11:26:45.108Z,64.62
2023-04-09T11:27:46.916Z,64.62
2023-04-09T11:28:45.081Z,64.62
2023-04-09T11:29:45.068Z,64.62
2023-04-09T11:30:45.081Z,64.62
2023-04-09T11:31:45.115Z,64.62
2023-04-09T11:32:45.088Z,64.62
2023-04-09T11:33:45.073Z,64.62
2023-04-09T11:34:45.014Z,64.62
2023-04-09T11:35:45.033Z,64.52
2023-04-09T11:36:45.014Z,64.52
2023-04-09T11:37:44.986Z,64.52
2023-04-09T11:38:44.991Z,64.52
2023-04-09T11:39:44.966Z,64.52
2023-04-09T11:40:44.948Z,64.52
2023-04-09T11:41:44.960Z,64.52
2023-04-09T11:42:44.930Z,64.52
2023-04-09T11:43:44.939Z,64.52
2023-04-09T11:44:44.904Z,64.52
2023-04-09T11:45:44.956Z,64.52
2023-04-09T11:46:44.920Z,64.52
2023-04-09T11:47:44.908Z,64.52
2023-04-09T11:48:44.889Z,64.52
2023-04-09T11:49:44.875Z,64.52
2023-04-09T11:50:44.840Z,64.52
2023-04-09T11:51:44.827Z,64.52
2023-04-09T11:52:44.820Z,64.52
2023-04-09T11:53:44.807Z,64.52
2023-04-09T11:54:44.821Z,64.52
2023-04-09T11:55:44.794Z,64.52
2023-04-09T11:56:44.797Z,64.52
2023-04-09T11:57:44.766Z,64.52
2023-04-09T11:58:44.756Z,64.52
2023-04-09T11:59:44.770Z,64.52
2023-04-09T12:00:44.731Z,64.52
2023-04-09T12:01:44.787Z,64.52
2023-04-09T12:02:44.861Z,64.49
2023-04-09T12:03:44.912Z,64.39
2023-04-09T12:04:44.821Z,64.39
2023-04-09T12:05:47.849Z,64.39
2023-04-09T12:06:45.747Z,64.39
2023-04-09T12:07:55.262Z,64.49
2023-04-09T12:08:45.765Z,64.52
2023-04-09T12:09:44.635Z,64.39
2023-04-09T12:10:44.633Z,64.39
2023-04-09T12:11:44.613Z,64.42
2023-04-09T12:12:44.631Z,64.49
2023-04-09T12:13:44.653Z,64.49
2023-04-09T12:14:44.587Z,64.52
2023-04-09T12:15:44.578Z,64.42
2023-04-09T12:16:44.594Z,64.39
2023-04-09T12:17:44.596Z,64.39
2023-04-09T12:18:44.537Z,64.42
2023-04-09T12:19:44.532Z,64.42
2023-04-09T12:20:44.548Z,64.42
2023-04-09T12:21:44.536Z,64.39
2023-04-09T12:22:44.498Z,64.39
2023-04-09T12:23:44.506Z,64.39
2023-04-09T12:24:44.474Z,64.39
2023-04-09T12:25:44.467Z,64.39
2023-04-09T12:26:44.453Z,64.39
2023-04-09T12:27:44.445Z,64.39
2023-04-09T12:28:44.456Z,64.39
2023-04-09T12:29:44.417Z,64.39
2023-04-09T12:30:44.432Z,64.39
2023-04-09T12:31:44.421Z,64.39
2023-04-09T12:32:44.427Z,64.39
2023-04-09T12:33:44.377Z,64.39
2023-04-09T12:34:44.368Z,64.39
2023-04-09T12:35:44.415Z,64.39
2023-04-09T12:36:44.344Z,64.39
2023-04-09T12:37:44.359Z,64.39
2023-04-09T12:38:44.340Z,64.39
2023-04-09T12:39:44.313Z,64.39
2023-04-09T12:40:44.332Z,64.39
2023-04-09T12:41:44.303Z,64.39
2023-04-09T12:42:44.276Z,64.39
2023-04-09T12:43:44.264Z,64.39
2023-04-09T12:44:44.254Z,64.49
2023-04-09T12:45:44.289Z,64.39
2023-04-09T12:46:44.268Z,64.39
2023-04-09T12:47:44.274Z,64.39
2023-04-09T12:48:44.261Z,64.39
2023-04-09T12:49:44.200Z,64.39
2023-04-09T12:50:44.189Z,64.39
2023-04-09T12:51:44.197Z,64.49
2023-04-09T12:52:44.261Z,64.39